Time;durP1;ratioP1;P1;durP2;ratioP2;P2;SDS_P1;SDS_P2;PMS_P1;PMS_P2;Temp;Humidity;BMP_temperature;BMP_pressure;BME280_temperature;BME280_humidity;BME280_pressure;Samples;Min_cycle;Max_cycle;Signal;HPM_P1;HPM_P2
2020/12/16 00:00:16;;;;;;;24.90;8.77;;;8.30;93.40;;;;;;5051241;28;20025;-87
2020/12/16 00:02:42;;;;;;;22.30;8.47;;;8.30;93.40;;;;;;5052204;28;20033;-86
2020/12/16 00:05:10;;;;;;;27.30;9.05;;;8.30;93.40;;;;;;5051445;28;20032;-83
2020/12/16 00:07:36;;;;;;;26.93;10.10;;;8.30;93.40;;;;;;5052126;28;20049;-84
2020/12/16 00:10:07;;;;;;;29.73;9.20;;;8.30;93.40;;;;;;5050936;28;20029;-85
2020/12/16 00:12:32;;;;;;;33.23;9.97;;;8.30;93.50;;;;;;5054310;28;20064;-85
2020/12/16 00:14:58;;;;;;;32.05;9.68;;;8.30;93.50;;;;;;5055675;28;20032;-84
2020/12/16 00:17:24;;;;;;;38.93;10.47;;;8.30;93.50;;;;;;5056233;28;20029;-85
2020/12/16 00:19:49;;;;;;;29.97;10.17;;;8.30;93.60;;;;;;5055473;28;20043;-89
2020/12/16 00:22:15;;;;;;;29.23;10.20;;;8.30;93.50;;;;;;5056565;28;20059;-89
2020/12/16 00:24:42;;;;;;;37.27;10.00;;;8.30;93.50;;;;;;5055784;28;20025;-89
2020/12/16 00:27:11;;;;;;;34.65;10.68;;;8.30;93.60;;;;;;5054564;28;20466;-88
2020/12/16 00:29:38;;;;;;;30.83;9.40;;;8.20;93.60;;;;;;5055814;28;20029;-90
2020/12/16 00:32:05;;;;;;;40.08;9.88;;;8.20;93.60;;;;;;5054791;28;20025;-90
2020/12/16 00:34:31;;;;;;;35.97;10.50;;;8.20;93.60;;;;;;5055467;28;20397;-90
2020/12/16 00:36:56;;;;;;;28.30;9.73;;;8.20;93.70;;;;;;5055188;28;20112;-89
2020/12/16 00:39:22;;;;;;;48.33;10.43;;;8.20;93.80;;;;;;5055557;28;20128;-90
2020/12/16 00:41:48;;;;;;;38.63;9.70;;;8.20;93.70;;;;;;5047893;28;20074;-89
2020/12/16 00:44:13;;;;;;;27.13;9.53;;;8.20;93.80;;;;;;5028927;28;20073;-88
2020/12/16 00:46:39;;;;;;;24.90;8.53;;;8.20;93.80;;;;;;5021726;28;20390;-88
2020/12/16 00:49:05;;;;;;;29.80;10.10;;;8.20;93.70;;;;;;5028830;28;20163;-88
2020/12/16 00:51:30;;;;;;;30.52;8.27;;;8.20;93.70;;;;;;5036258;28;20072;-88
2020/12/16 00:53:56;;;;;;;31.57;8.73;;;8.20;93.60;;;;;;5018237;28;20056;-88
2020/12/16 00:56:22;;;;;;;41.83;9.17;;;8.20;93.70;;;;;;5018424;28;20121;-88
2020/12/16 00:58:47;;;;;;;33.60;9.38;;;8.20;93.70;;;;;;5018609;28;20033;-88
2020/12/16 01:01:13;;;;;;;45.87;9.23;;;8.20;93.90;;;;;;5038263;28;20030;-88
2020/12/16 01:03:39;;;;;;;45.67;8.23;;;8.30;94.00;;;;;;5030114;28;20029;-89
2020/12/16 01:06:04;;;;;;;37.78;8.45;;;8.20;93.90;;;;;;5036083;28;20017;-87
2020/12/16 01:08:30;;;;;;;30.42;9.07;;;8.20;94.00;;;;;;5037231;28;20021;-87
2020/12/16 01:10:56;;;;;;;39.05;7.45;;;8.20;94.10;;;;;;5035315;28;20033;-87
2020/12/16 01:13:22;;;;;;;30.97;7.70;;;8.20;94.20;;;;;;5039529;28;20029;-88
2020/12/16 01:15:48;;;;;;;33.97;7.37;;;8.20;94.30;;;;;;5037749;28;20087;-87
2020/12/16 01:18:13;;;;;;;27.70;6.85;;;8.20;94.00;;;;;;5036811;28;20032;-88
2020/12/16 01:20:39;;;;;;;57.27;8.00;;;8.20;94.20;;;;;;5027574;28;20030;-89
2020/12/16 01:23:05;;;;;;;54.80;8.00;;;8.20;94.00;;;;;;5034071;28;20068;-89
2020/12/16 01:25:30;;;;;;;28.25;7.18;;;8.10;94.00;;;;;;5018129;28;20037;-89
2020/12/16 01:28:01;;;;;;;44.60;7.25;;;8.20;94.20;;;;;;5016794;28;20029;-88
2020/12/16 01:30:27;;;;;;;36.47;7.07;;;8.10;94.00;;;;;;5018006;28;20029;-88
2020/12/16 01:32:55;;;;;;;30.57;7.17;;;8.10;94.20;;;;;;5017598;28;20474;-87
2020/12/16 01:35:22;;;;;;;67.23;8.70;;;8.10;94.30;;;;;;5035593;28;20025;-89
2020/12/16 01:37:48;;;;;;;38.03;7.30;;;8.10;94.30;;;;;;5018202;28;20025;-89
2020/12/16 01:40:14;;;;;;;30.67;7.07;;;8.10;94.30;;;;;;5035206;28;20477;-89
2020/12/16 01:42:41;;;;;;;38.67;7.43;;;8.20;94.40;;;;;;5018160;28;20042;-89
2020/12/16 01:45:19;;;;;;;23.77;7.27;;;8.10;94.40;;;;;;5017235;28;20032;-89
2020/12/16 01:47:45;;;;;;;26.67;6.53;;;8.20;94.40;;;;;;5018336;28;20112;-89
2020/12/16 01:50:12;;;;;;;39.83;7.10;;;8.10;94.30;;;;;;5034832;28;20255;-88
2020/12/16 01:52:39;;;;;;;22.40;6.33;;;8.00;94.20;;;;;;5017737;28;20033;-88
2020/12/16 01:55:07;;;;;;;34.53;5.90;;;8.00;94.20;;;;;;5034101;28;20034;-88
2020/12/16 01:57:36;;;;;;;27.87;6.30;;;7.90;94.20;;;;;;5017388;28;20041;-88
2020/12/16 02:00:06;;;;;;;17.67;5.00;;;7.80;94.10;;;;;;5016986;28;20021;-89
2020/12/16 02:02:35;;;;;;;12.70;5.10;;;7.80;94.20;;;;;;5034983;28;20030;-89
2020/12/16 02:05:03;;;;;;;12.73;5.17;;;7.80;94.20;;;;;;5016853;28;20025;-89
2020/12/16 02:07:31;;;;;;;16.50;5.20;;;7.80;94.10;;;;;;5016829;28;20124;-88
2020/12/16 02:09:56;;;;;;;11.50;5.30;;;7.70;93.90;;;;;;5016661;28;20026;-88
2020/12/16 02:12:28;;;;;;;16.20;6.50;;;7.70;94.00;;;;;;5034002;28;20044;-88
2020/12/16 02:14:54;;;;;;;17.00;5.93;;;7.70;94.10;;;;;;5033977;28;20030;-87
2020/12/16 02:17:20;;;;;;;11.93;5.50;;;7.70;94.10;;;;;;5016840;28;20033;-88
2020/12/16 02:19:57;;;;;;;13.47;5.30;;;7.70;94.00;;;;;;5016684;28;20026;-89
2020/12/16 02:22:23;;;;;;;17.43;5.83;;;7.70;94.10;;;;;;5034419;28;20036;-88
2020/12/16 02:25:10;;;;;;;11.90;5.10;;;7.70;94.10;;;;;;5017000;28;20030;-89
2020/12/16 02:27:37;;;;;;;9.87;4.80;;;7.80;94.00;;;;;;5017229;28;20136;-88
2020/12/16 02:30:05;;;;;;;11.67;5.10;;;7.70;93.90;;;;;;5016573;28;20033;-89
2020/12/16 02:32:31;;;;;;;10.33;4.87;;;7.80;94.00;;;;;;5016927;28;20026;-89
2020/12/16 02:34:57;;;;;;;10.73;4.90;;;7.80;93.90;;;;;;5016289;28;20040;-88
2020/12/16 02:37:24;;;;;;;11.97;4.63;;;7.80;93.80;;;;;;5034179;28;20036;-89
2020/12/16 02:39:50;;;;;;;18.63;4.57;;;7.80;93.80;;;;;;5034064;28;20382;-89
2020/12/16 02:42:21;;;;;;;17.87;4.87;;;7.70;93.70;;;;;;5017744;28;20182;-89
2020/12/16 02:44:47;;;;;;;15.10;5.03;;;7.70;93.70;;;;;;5036573;28;20111;-90
2020/12/16 02:47:13;;;;;;;14.00;4.37;;;7.80;93.80;;;;;;5052763;28;20116;-89
2020/12/16 02:49:39;;;;;;;37.60;5.23;;;7.70;93.70;;;;;;5053960;28;20044;-89
2020/12/16 02:52:04;;;;;;;25.10;5.20;;;7.70;93.50;;;;;;5035862;28;20029;-89
2020/12/16 02:54:30;;;;;;;13.13;4.80;;;7.60;93.70;;;;;;5036437;28;20056;-89
2020/12/16 02:56:56;;;;;;;21.27;5.40;;;7.70;93.90;;;;;;5036046;28;20029;-88
2020/12/16 02:59:23;;;;;;;13.37;4.80;;;7.70;93.90;;;;;;5036119;28;20029;-89
2020/12/16 03:01:50;;;;;;;14.07;5.27;;;7.70;93.80;;;;;;5036583;28;20025;-89
2020/12/16 03:04:17;;;;;;;10.93;4.90;;;7.70;93.80;;;;;;5035930;28;20661;-89
2020/12/16 03:06:46;;;;;;;14.23;4.70;;;7.80;93.80;;;;;;5036405;28;20056;-89
2020/12/16 03:09:13;;;;;;;12.53;4.90;;;7.70;93.70;;;;;;5053235;28;20025;-89
2020/12/16 03:11:39;;;;;;;12.63;4.63;;;7.80;93.70;;;;;;5035994;28;20083;-89
2020/12/16 03:14:05;;;;;;;12.10;5.00;;;7.70;93.60;;;;;;5035160;28;20480;-88
2020/12/16 03:16:30;;;;;;;12.87;5.30;;;7.70;93.60;;;;;;5036741;28;20458;-89
2020/12/16 03:18:56;;;;;;;12.60;5.37;;;7.70;93.60;;;;;;5036355;28;20461;-88
2020/12/16 03:21:23;;;;;;;12.20;4.73;;;7.70;93.60;;;;;;5053834;28;20021;-89
2020/12/16 03:23:50;;;;;;;9.27;4.37;;;7.70;93.90;;;;;;5036093;28;20481;-89
2020/12/16 03:26:16;;;;;;;11.20;4.63;;;7.70;93.50;;;;;;5035249;28;20108;-89
2020/12/16 03:28:41;;;;;;;11.43;5.10;;;7.70;93.60;;;;;;5036068;28;20069;-89
2020/12/16 03:31:07;;;;;;;13.77;5.00;;;7.70;93.60;;;;;;5035541;28;20029;-89
2020/12/16 03:33:33;;;;;;;10.77;4.53;;;7.80;93.50;;;;;;5035467;28;20032;-89
2020/12/16 03:35:58;;;;;;;8.27;4.37;;;7.70;93.40;;;;;;5036222;28;20036;-89
2020/12/16 03:38:24;;;;;;;9.57;4.67;;;7.70;93.40;;;;;;5036261;28;20025;-89
2020/12/16 03:40:50;;;;;;;11.27;5.20;;;7.70;93.40;;;;;;5035727;28;20029;-90
2020/12/16 03:43:15;;;;;;;12.33;4.40;;;7.70;93.40;;;;;;5035323;28;20106;-90
2020/12/16 03:45:41;;;;;;;15.93;5.30;;;7.70;93.40;;;;;;5035938;28;20025;-90
2020/12/16 03:48:06;;;;;;;11.97;4.43;;;7.70;93.40;;;;;;5039298;28;20027;-89
2020/12/16 03:50:32;;;;;;;13.03;4.70;;;7.80;93.30;;;;;;5057303;28;20068;-90
2020/12/16 03:52:58;;;;;;;8.97;4.57;;;7.70;93.30;;;;;;5039489;28;20553;-86
2020/12/16 03:55:23;;;;;;;12.10;4.50;;;7.80;93.30;;;;;;5039025;28;20462;-89
2020/12/16 03:57:49;;;;;;;13.67;4.53;;;7.70;93.20;;;;;;5039747;28;20433;-89
2020/12/16 04:00:14;;;;;;;11.30;5.33;;;7.70;93.00;;;;;;5039261;28;20067;-89
2020/12/16 04:02:40;;;;;;;10.87;5.57;;;7.60;93.10;;;;;;5039544;28;20397;-89
2020/12/16 04:05:06;;;;;;;12.83;5.17;;;7.70;93.20;;;;;;5039055;28;20021;-89
2020/12/16 04:07:32;;;;;;;19.33;5.40;;;7.70;93.10;;;;;;5039382;28;20021;-89
2020/12/16 04:09:58;;;;;;;10.63;4.80;;;7.60;93.10;;;;;;5039394;28;20469;-89
2020/12/16 04:12:24;;;;;;;17.80;5.00;;;7.70;93.20;;;;;;5038844;28;20025;-89
2020/12/16 04:14:50;;;;;;;13.73;5.57;;;7.70;93.20;;;;;;5039382;28;20040;-89
2020/12/16 04:17:16;;;;;;;14.00;4.83;;;7.70;93.20;;;;;;5038819;28;20405;-89
2020/12/16 04:19:42;;;;;;;15.57;5.43;;;7.70;93.10;;;;;;5039297;28;20025;-90
2020/12/16 04:22:08;;;;;;;10.80;4.27;;;7.70;93.10;;;;;;5038885;28;20024;-89
2020/12/16 04:24:33;;;;;;;11.33;4.20;;;7.60;93.10;;;;;;5038874;28;20018;-90
2020/12/16 04:26:59;;;;;;;7.63;4.13;;;7.60;93.10;;;;;;5038468;28;20456;-90
2020/12/16 04:29:27;;;;;;;7.80;3.63;;;7.70;93.00;;;;;;5038719;28;20071;-90
2020/12/16 04:31:53;;;;;;;9.17;3.73;;;7.70;93.10;;;;;;5034149;28;20441;-90
2020/12/16 04:34:20;;;;;;;7.13;3.50;;;7.70;93.00;;;;;;5037290;28;20032;-90
2020/12/16 04:36:50;;;;;;;9.77;3.97;;;7.70;93.00;;;;;;5038749;28;20144;-89
2020/12/16 04:39:17;;;;;;;8.53;4.50;;;7.70;93.00;;;;;;5038253;28;20025;-89
2020/12/16 04:41:43;;;;;;;10.93;4.80;;;7.70;93.00;;;;;;5038959;28;20021;-89
2020/12/16 04:44:14;;;;;;;13.07;5.10;;;7.70;92.90;;;;;;5038002;28;20052;-90
2020/12/16 04:46:41;;;;;;;18.03;7.13;;;7.70;92.90;;;;;;5038904;28;20048;-89
2020/12/16 04:49:08;;;;;;;31.00;10.43;;;7.70;93.00;;;;;;5038035;28;20112;-88
2020/12/16 04:51:36;;;;;;;28.83;9.27;;;7.70;92.90;;;;;;5038152;28;20021;-89
2020/12/16 04:54:02;;;;;;;16.30;7.03;;;7.70;92.90;;;;;;5037801;28;20029;-87
2020/12/16 04:56:30;;;;;;;10.63;5.30;;;7.70;92.90;;;;;;5055321;28;20118;-89
2020/12/16 04:58:56;;;;;;;10.37;4.80;;;7.70;92.90;;;;;;5055829;28;20526;-89
2020/12/16 05:01:22;;;;;;;10.53;4.77;;;7.80;92.90;;;;;;5037657;28;20110;-89
2020/12/16 05:03:47;;;;;;;12.87;5.20;;;7.70;92.80;;;;;;5038451;28;20028;-89
2020/12/16 05:06:32;;;;;;;8.90;4.30;;;7.70;92.80;;;;;;5037886;28;20128;-89
2020/12/16 05:09:05;;;;;;;13.43;5.33;;;7.70;92.90;;;;;;5038418;28;20413;-89
2020/12/16 05:11:43;;;;;;;9.90;4.97;;;7.70;92.90;;;;;;5038563;28;20055;-89
2020/12/16 05:14:16;;;;;;;10.20;4.47;;;7.70;92.90;;;;;;5037397;28;20429;-88
2020/12/16 05:16:57;;;;;;;11.30;5.23;;;7.70;92.90;;;;;;5038025;28;20075;-89
2020/12/16 05:19:36;;;;;;;11.10;5.23;;;7.80;92.80;;;;;;5037457;28;20028;-89
2020/12/16 05:22:23;;;;;;;13.47;5.33;;;7.80;92.80;;;;;;5055565;28;20060;-89
2020/12/16 05:24:56;;;;;;;13.00;5.60;;;7.80;92.70;;;;;;5038317;28;20029;-89
2020/12/16 05:27:25;;;;;;;11.80;5.70;;;7.80;92.80;;;;;;5037642;28;20044;-89
2020/12/16 05:29:56;;;;;;;13.97;5.50;;;7.70;92.80;;;;;;5038115;28;20043;-89
2020/12/16 05:32:28;;;;;;;19.57;5.93;;;7.70;92.80;;;;;;5037677;28;20025;-89
2020/12/16 05:34:56;;;;;;;12.13;5.20;;;7.60;92.80;;;;;;5038088;28;20025;-89
2020/12/16 05:37:35;;;;;;;10.93;5.27;;;7.60;92.90;;;;;;5037241;28;20051;-89
2020/12/16 05:40:22;;;;;;;10.17;5.33;;;7.60;92.90;;;;;;5037794;28;20365;-89
2020/12/16 05:42:49;;;;;;;13.20;5.70;;;7.70;93.00;;;;;;5033400;28;20063;-89
2020/12/16 05:45:16;;;;;;;10.73;5.13;;;7.70;92.90;;;;;;5037309;28;20025;-89
2020/12/16 05:48:06;;;;;;;13.53;5.40;;;7.70;92.80;;;;;;5037971;28;20028;-90
2020/12/16 05:50:52;;;;;;;11.70;5.83;;;7.70;92.70;;;;;;5037363;28;20021;-89
2020/12/16 05:53:24;;;;;;;13.43;5.80;;;7.80;92.70;;;;;;5035946;28;20040;-89
2020/12/16 05:56:02;;;;;;;15.38;5.65;;;7.70;92.70;;;;;;5037214;28;20541;-89
2020/12/16 05:58:32;;;;;;;12.07;5.53;;;7.70;92.70;;;;;;5036726;28;20033;-89
2020/12/16 06:01:06;;;;;;;13.33;5.40;;;7.70;92.70;;;;;;5054932;28;20481;-90
2020/12/16 06:03:39;;;;;;;17.00;6.40;;;7.80;92.70;;;;;;5037437;28;20033;-89
2020/12/16 06:06:10;;;;;;;15.23;6.27;;;7.80;92.70;;;;;;5037172;28;20056;-89
2020/12/16 06:08:41;;;;;;;12.27;5.97;;;7.80;92.70;;;;;;5036967;28;20078;-89
2020/12/16 06:11:08;;;;;;;12.60;5.77;;;7.70;92.60;;;;;;5036991;28;20021;-88
2020/12/16 06:13:35;;;;;;;14.83;6.30;;;7.70;92.60;;;;;;5037032;28;20028;-89
2020/12/16 06:16:03;;;;;;;13.10;6.10;;;7.70;92.60;;;;;;5037154;28;20033;-89
2020/12/16 06:18:33;;;;;;;14.97;6.37;;;7.70;92.70;;;;;;5054381;28;20024;-89
2020/12/16 06:21:00;;;;;;;12.33;5.60;;;7.70;92.70;;;;;;5036959;28;20078;-89
2020/12/16 06:23:36;;;;;;;13.83;5.73;;;7.70;92.70;;;;;;5036347;28;20033;-89
2020/12/16 06:26:05;;;;;;;11.70;5.70;;;7.60;92.70;;;;;;5036859;28;20033;-89
2020/12/16 06:28:31;;;;;;;10.67;5.47;;;7.60;92.70;;;;;;5053913;28;20033;-90
2020/12/16 06:31:09;;;;;;;10.67;5.00;;;7.70;93.00;;;;;;5037086;28;20081;-89
2020/12/16 06:33:43;;;;;;;8.70;4.87;;;7.70;92.60;;;;;;5036692;28;20459;-89
2020/12/16 06:36:11;;;;;;;9.07;4.90;;;7.70;92.60;;;;;;5036277;28;20036;-88
2020/12/16 06:38:42;;;;;;;9.87;4.93;;;7.70;92.50;;;;;;5036692;28;20029;-90
2020/12/16 06:41:23;;;;;;;9.05;4.53;;;7.80;92.40;;;;;;5053977;28;20078;-88
2020/12/16 06:43:56;;;;;;;9.17;4.60;;;7.80;92.30;;;;;;5021844;28;20411;-89
2020/12/16 06:46:34;;;;;;;7.93;4.53;;;7.80;92.40;;;;;;5016502;28;20026;-89
2020/12/16 06:49:20;;;;;;;9.47;5.13;;;7.80;92.30;;;;;;5016979;28;20026;-90
2020/12/16 06:51:47;;;;;;;7.50;4.17;;;7.70;92.20;;;;;;5003030;28;20069;-89
2020/12/16 06:54:17;;;;;;;8.60;4.80;;;7.70;92.50;;;;;;5016299;28;20163;-89
2020/12/16 06:56:46;;;;;;;8.73;4.97;;;7.80;92.20;;;;;;5016555;28;20037;-89
2020/12/16 06:59:12;;;;;;;7.47;4.47;;;7.70;92.20;;;;;;5016086;28;20029;-88
2020/12/16 07:01:38;;;;;;;7.33;3.90;;;7.60;92.30;;;;;;5016335;28;20469;-89
2020/12/16 07:04:09;;;;;;;8.23;4.80;;;7.60;92.50;;;;;;5015874;28;20068;-89
2020/12/16 07:06:36;;;;;;;7.23;4.40;;;7.60;92.40;;;;;;5016306;28;20026;-89
2020/12/16 07:09:22;;;;;;;6.00;4.30;;;7.60;92.30;;;;;;5016633;28;20536;-89
2020/12/16 07:11:55;;;;;;;7.03;4.47;;;7.60;92.30;;;;;;5016298;28;20112;-89
2020/12/16 07:14:27;;;;;;;9.07;4.50;;;7.70;92.30;;;;;;5015019;28;20029;-89
2020/12/16 07:17:12;;;;;;;7.20;4.57;;;7.70;92.30;;;;;;5016532;28;20044;-89
2020/12/16 07:19:38;;;;;;;8.63;4.50;;;7.60;92.30;;;;;;5016312;28;20026;-89
2020/12/16 07:22:17;;;;;;;7.43;4.70;;;7.70;92.30;;;;;;5018032;28;20027;-89
2020/12/16 07:24:50;;;;;;;6.47;4.40;;;7.70;92.20;;;;;;5037445;28;20037;-89
2020/12/16 07:27:25;;;;;;;7.57;4.50;;;7.70;92.20;;;;;;5019507;28;20394;-88
2020/12/16 07:29:59;;;;;;;7.60;4.73;;;7.70;92.20;;;;;;5019941;28;20033;-89
2020/12/16 07:32:25;;;;;;;7.63;4.80;;;7.70;92.20;;;;;;5019241;28;20025;-89
2020/12/16 07:34:55;;;;;;;7.23;4.60;;;7.70;92.20;;;;;;5020222;28;20030;-89
2020/12/16 07:37:31;;;;;;;7.87;5.40;;;7.70;92.20;;;;;;5019787;28;20029;-89
2020/12/16 07:40:10;;;;;;;6.90;4.37;;;7.70;92.20;;;;;;5037509;28;20100;-90
2020/12/16 07:42:36;;;;;;;8.27;4.77;;;7.70;92.30;;;;;;5019719;28;20482;-90
2020/12/16 07:45:07;;;;;;;8.07;4.77;;;7.70;92.30;;;;;;5019928;28;20029;-89
2020/12/16 07:47:33;;;;;;;8.37;5.10;;;7.60;92.30;;;;;;5018952;28;20029;-89
2020/12/16 07:49:58;;;;;;;9.33;5.30;;;7.70;92.30;;;;;;5019815;28;20065;-89
2020/12/16 07:52:27;;;;;;;7.37;4.43;;;7.70;92.30;;;;;;5019033;28;20466;-89
2020/12/16 07:54:53;;;;;;;7.23;4.93;;;7.70;92.30;;;;;;5036811;28;20086;-89
2020/12/16 07:57:32;;;;;;;9.80;4.73;;;7.80;92.30;;;;;;5018869;28;20049;-89
2020/12/16 07:59:58;;;;;;;7.90;4.63;;;7.80;92.30;;;;;;5019732;28;20533;-88
2020/12/16 08:02:25;;;;;;;6.93;4.80;;;7.80;92.30;;;;;;5018801;28;20029;-89
2020/12/16 08:05:03;;;;;;;8.60;5.00;;;7.80;92.30;;;;;;5019818;28;20076;-88
2020/12/16 08:07:30;;;;;;;7.67;5.00;;;7.80;92.30;;;;;;5019186;28;20035;-89
2020/12/16 08:10:04;;;;;;;7.07;4.70;;;7.80;92.20;;;;;;5036609;28;20021;-89
2020/12/16 08:12:32;;;;;;;8.70;5.07;;;7.80;92.30;;;;;;5018523;28;20140;-90
2020/12/16 08:15:09;;;;;;;8.87;5.47;;;7.80;92.30;;;;;;5036608;28;20026;-89
2020/12/16 08:17:38;;;;;;;11.07;6.00;;;7.80;92.20;;;;;;5018433;28;20026;-89
2020/12/16 08:20:18;;;;;;;8.50;5.27;;;7.80;92.30;;;;;;5036376;28;20030;-88
2020/12/16 08:22:45;;;;;;;9.73;5.77;;;7.80;92.20;;;;;;5036636;28;20061;-90
2020/12/16 08:25:14;;;;;;;12.00;6.33;;;7.80;92.30;;;;;;5019179;28;20072;-89
2020/12/16 08:27:46;;;;;;;9.77;5.80;;;7.90;92.20;;;;;;5019145;28;20044;-90
2020/12/16 08:30:19;;;;;;;12.73;7.17;;;7.90;92.20;;;;;;5019336;28;20026;-90
2020/12/16 08:32:53;;;;;;;17.13;6.50;;;7.90;92.20;;;;;;5018521;28;20051;-90
2020/12/16 08:35:21;;;;;;;15.70;7.27;;;7.90;92.30;;;;;;5019030;28;20144;-88
2020/12/16 08:37:53;;;;;;;17.97;7.83;;;7.90;92.40;;;;;;5019236;28;20040;-90
2020/12/16 08:40:19;;;;;;;12.32;6.85;;;7.90;92.50;;;;;;5018802;28;20025;-89
2020/12/16 08:42:45;;;;;;;13.93;7.13;;;7.90;92.40;;;;;;5018615;28;20045;-90
2020/12/16 08:45:11;;;;;;;16.90;8.17;;;8.00;92.40;;;;;;5017913;28;20026;-89
2020/12/16 08:47:37;;;;;;;15.17;6.93;;;8.10;92.40;;;;;;5035867;28;20032;-90
2020/12/16 08:50:16;;;;;;;16.27;7.65;;;8.10;92.40;;;;;;5018872;28;20091;-90
2020/12/16 08:52:46;;;;;;;15.23;7.40;;;8.20;92.40;;;;;;5018172;28;20121;-90
2020/12/16 08:55:15;;;;;;;19.38;8.80;;;8.20;92.40;;;;;;5018473;28;20034;-90
2020/12/16 08:57:59;;;;;;;24.42;10.05;;;8.20;92.50;;;;;;5035577;28;20033;-90
2020/12/16 09:00:43;;;;;;;27.27;10.07;;;8.20;92.40;;;;;;5018272;28;20029;-90
2020/12/16 09:03:12;;;;;;;24.07;9.73;;;8.30;92.40;;;;;;5018698;28;20053;-90
2020/12/16 09:05:39;;;;;;;19.85;8.38;;;8.30;92.40;;;;;;5018124;28;20024;-89
2020/12/16 09:08:12;;;;;;;21.87;7.77;;;8.40;92.30;;;;;;5018444;28;20026;-90
2020/12/16 09:10:38;;;;;;;;;;;8.40;92.30;;;;;;5018679;28;20485;-89
2020/12/16 09:13:15;;;;;;;21.80;9.00;;;8.50;92.30;;;;;;5017779;28;20007;-89
2020/12/16 09:15:48;;;;;;;19.10;8.32;;;8.60;92.30;;;;;;5014336;28;20041;-88
2020/12/16 09:18:15;;;;;;;20.75;8.57;;;8.60;92.20;;;;;;5018142;28;20092;-89
2020/12/16 09:20:41;;;;;;;21.15;9.50;;;8.60;92.20;;;;;;5035344;28;20032;-90
2020/12/16 09:23:07;;;;;;;19.23;8.82;;;8.60;92.10;;;;;;5018098;28;20094;-90
2020/12/16 09:25:33;;;;;;;21.17;9.32;;;8.60;92.10;;;;;;5017390;28;20097;-90
2020/12/16 09:28:00;;;;;;;21.67;9.13;;;8.60;92.20;;;;;;5017196;28;20053;-89
2020/12/16 09:30:33;;;;;;;20.27;9.43;;;8.60;92.20;;;;;;5014879;28;20061;-89
2020/12/16 09:33:13;;;;;;;19.25;8.80;;;8.60;92.10;;;;;;5017828;28;20030;-87
2020/12/16 09:35:39;;;;;;;18.05;8.52;;;8.60;92.00;;;;;;5001490;28;20036;-88
2020/12/16 09:38:13;;;;;;;16.45;8.18;;;8.60;92.10;;;;;;5017159;28;20059;-88
2020/12/16 09:40:39;;;;;;;17.52;7.78;;;8.60;92.10;;;;;;5019263;28;20061;-88
2020/12/16 09:43:08;;;;;;;14.70;7.38;;;8.70;92.10;;;;;;5025053;28;20053;-87
2020/12/16 09:45:34;;;;;;;13.55;6.93;;;8.60;92.10;;;;;;5033443;28;20024;-86
2020/12/16 09:48:00;;;;;;;11.43;6.53;;;8.60;92.10;;;;;;5022687;28;20026;-89
2020/12/16 09:50:28;;;;;;;10.38;6.10;;;8.60;92.10;;;;;;5022412;28;20530;-87
2020/12/16 09:53:07;;;;;;;12.00;7.15;;;8.60;92.20;;;;;;5027504;28;20116;-89
2020/12/16 09:55:40;;;;;;;13.68;6.63;;;8.60;92.40;;;;;;5023675;28;20092;-89
2020/12/16 09:58:12;;;;;;;10.05;5.88;;;8.50;92.30;;;;;;5020270;28;20031;-88
2020/12/16 10:00:40;;;;;;;11.77;6.05;;;8.60;92.50;;;;;;5017141;28;20026;-88
2020/12/16 10:03:08;;;;;;;10.20;6.30;;;8.60;92.40;;;;;;5017566;28;20434;-89
2020/12/16 10:05:35;;;;;;;11.50;6.30;;;8.60;92.50;;;;;;5016898;28;20030;-89
2020/12/16 10:08:02;;;;;;;10.15;7.00;;;8.60;92.60;;;;;;5017337;28;20029;-88
2020/12/16 10:10:29;;;;;;;9.23;6.00;;;8.70;92.70;;;;;;5016655;28;20029;-89
2020/12/16 10:12:55;;;;;;;11.25;5.88;;;8.60;92.50;;;;;;5017102;28;20029;-87
2020/12/16 10:15:21;;;;;;;8.45;5.53;;;8.60;92.40;;;;;;5017469;28;20026;-87
2020/12/16 10:17:47;;;;;;;10.13;5.45;;;8.60;92.40;;;;;;5034311;28;20030;-88
2020/12/16 10:20:13;;;;;;;9.77;5.95;;;8.70;92.50;;;;;;5016935;28;20376;-88
2020/12/16 10:22:40;;;;;;;9.98;6.35;;;8.70;92.60;;;;;;5033132;28;20037;-88
2020/12/16 10:25:07;;;;;;;10.70;6.00;;;8.70;92.50;;;;;;5016682;28;20028;-89
2020/12/16 10:27:32;;;;;;;7.50;5.43;;;8.70;92.60;;;;;;5015944;28;20097;-89
2020/12/16 10:30:03;;;;;;;9.40;5.60;;;8.80;92.90;;;;;;5016719;28;20138;-89
2020/12/16 10:32:28;;;;;;;8.45;6.18;;;8.90;92.70;;;;;;5016076;28;20032;-88
2020/12/16 10:34:54;;;;;;;9.23;5.80;;;8.90;92.50;;;;;;5016970;28;20033;-87
2020/12/16 10:37:21;;;;;;;10.50;6.68;;;8.80;92.40;;;;;;5016813;28;20466;-88
2020/12/16 10:40:04;;;;;;;19.17;8.07;;;8.90;92.40;;;;;;4976733;28;20490;-89
2020/12/16 10:42:30;;;;;;;11.15;7.40;;;8.90;92.40;;;;;;5020241;28;20048;-89
2020/12/16 10:44:55;;;;;;;10.55;6.22;;;8.90;92.50;;;;;;5052625;28;20076;-88
2020/12/16 10:47:21;;;;;;;11.05;7.28;;;8.90;92.50;;;;;;5052351;28;20017;-86
2020/12/16 10:49:47;;;;;;;11.02;6.22;;;8.90;92.70;;;;;;5052691;28;20347;-89
2020/12/16 10:52:14;;;;;;;11.88;7.90;;;9.00;92.70;;;;;;5053468;28;20036;-90
2020/12/16 10:54:41;;;;;;;12.10;7.03;;;9.10;92.60;;;;;;5052334;28;20033;-90
2020/12/16 10:57:08;;;;;;;11.32;7.00;;;9.20;92.50;;;;;;5054975;28;20040;-89
2020/12/16 10:59:34;;;;;;;12.57;7.05;;;9.30;92.40;;;;;;5054014;28;20045;-89
2020/12/16 11:02:00;;;;;;;14.32;7.40;;;9.40;92.20;;;;;;5053708;28;20421;-90
2020/12/16 11:04:28;;;;;;;11.30;7.30;;;9.40;92.10;;;;;;5053997;28;20033;-89
2020/12/16 11:06:54;;;;;;;12.82;7.82;;;9.40;92.10;;;;;;5053881;28;20028;-89
2020/12/16 11:09:20;;;;;;;14.20;8.25;;;9.40;92.10;;;;;;5053456;28;20021;-90
2020/12/16 11:11:49;;;;;;;12.95;7.55;;;9.40;92.10;;;;;;5054309;28;20331;-90
2020/12/16 11:14:16;;;;;;;11.80;7.78;;;9.40;92.20;;;;;;5053561;28;20033;-90
2020/12/16 11:16:42;;;;;;;15.60;8.60;;;9.40;92.10;;;;;;5052637;28;20029;-89
2020/12/16 11:19:13;;;;;;;13.82;9.23;;;9.40;92.10;;;;;;5053893;28;20056;-90
2020/12/16 11:21:46;;;;;;;13.80;9.23;;;9.40;92.10;;;;;;5052779;28;20033;-89
2020/12/16 11:24:14;;;;;;;13.80;8.63;;;9.40;92.10;;;;;;5054372;28;20032;-89
2020/12/16 11:26:44;;;;;;;13.15;8.43;;;9.40;92.10;;;;;;5052830;28;20029;-89
2020/12/16 11:29:10;;;;;;;13.55;8.68;;;9.40;92.10;;;;;;5052595;28;20029;-90
2020/12/16 11:31:44;;;;;;;14.23;8.18;;;9.40;92.10;;;;;;5052450;28;20496;-90
2020/12/16 11:34:11;;;;;;;16.70;8.98;;;9.40;92.10;;;;;;5052083;28;20029;-90
2020/12/16 11:36:44;;;;;;;14.60;9.10;;;9.50;92.10;;;;;;5051570;28;20029;-90
2020/12/16 11:39:10;;;;;;;14.25;8.95;;;9.50;92.10;;;;;;5038453;28;20459;-91
2020/12/16 11:41:40;;;;;;;12.63;8.43;;;9.50;92.10;;;;;;5031681;28;20061;-90
2020/12/16 11:44:05;;;;;;;13.98;8.57;;;9.50;92.10;;;;;;5042480;28;20049;-89
2020/12/16 11:46:32;;;;;;;14.93;8.45;;;9.50;92.10;;;;;;5029650;28;20032;-89
2020/12/16 11:48:58;;;;;;;14.88;8.65;;;9.60;92.10;;;;;;5037971;28;20025;-90
2020/12/16 11:51:25;;;;;;;13.32;9.25;;;9.50;92.00;;;;;;5037641;28;20116;-90
2020/12/16 11:53:52;;;;;;;14.55;9.77;;;9.60;92.10;;;;;;5036457;28;20029;-90
2020/12/16 11:56:18;;;;;;;12.73;8.30;;;9.70;92.00;;;;;;5021726;28;20387;-90
2020/12/16 11:58:44;;;;;;;18.42;10.63;;;9.80;91.90;;;;;;5012205;28;20038;-90
2020/12/16 12:01:11;;;;;;;18.52;11.27;;;9.80;91.90;;;;;;5032036;28;20032;-90
2020/12/16 12:03:37;;;;;;;17.10;10.05;;;10.00;91.70;;;;;;5016795;28;20486;-90
2020/12/16 12:06:04;;;;;;;15.98;9.60;;;10.00;91.60;;;;;;5017061;28;20087;-91
2020/12/16 12:08:29;;;;;;;15.50;9.40;;;9.90;91.50;;;;;;5017993;28;20060;-89
2020/12/16 12:10:55;;;;;;;16.75;10.02;;;9.90;91.50;;;;;;5019219;28;20410;-89
2020/12/16 12:13:21;;;;;;;19.25;10.82;;;9.90;91.60;;;;;;5019354;28;20030;-89
2020/12/16 12:15:46;;;;;;;17.98;11.07;;;9.90;91.70;;;;;;5035489;28;20033;-89
2020/12/16 12:18:12;;;;;;;20.38;10.95;;;9.90;91.70;;;;;;5019688;28;20034;-89
2020/12/16 12:20:37;;;;;;;20.67;11.68;;;10.00;91.80;;;;;;5020026;28;20485;-88
2020/12/16 12:23:03;;;;;;;18.60;11.48;;;10.10;91.60;;;;;;5020343;28;20124;-89
2020/12/16 12:25:29;;;;;;;18.85;11.43;;;10.20;91.50;;;;;;5037879;28;20029;-87
2020/12/16 12:27:54;;;;;;;18.52;11.00;;;10.30;91.50;;;;;;5019521;28;20426;-89
2020/12/16 12:30:20;;;;;;;19.48;11.77;;;10.30;91.40;;;;;;5020106;28;20244;-90
2020/12/16 12:32:45;;;;;;;21.98;12.60;;;10.40;91.30;;;;;;5018939;28;20128;-90
2020/12/16 12:35:11;;;;;;;20.33;11.82;;;10.40;91.20;;;;;;5019071;28;20394;-90
2020/12/16 12:37:37;;;;;;;19.67;12.02;;;10.40;91.10;;;;;;5035846;28;20028;-90
2020/12/16 12:40:03;;;;;;;19.95;12.20;;;10.50;91.10;;;;;;5019158;28;20029;-89
2020/12/16 12:42:29;;;;;;;18.77;11.60;;;10.50;91.00;;;;;;5018689;28;20045;-89
2020/12/16 12:44:54;;;;;;;19.75;11.20;;;10.50;91.00;;;;;;5035266;28;20028;-90
2020/12/16 12:47:20;;;;;;;21.30;12.45;;;10.50;91.00;;;;;;5035116;28;20022;-90
2020/12/16 12:49:46;;;;;;;23.40;11.98;;;10.50;90.90;;;;;;5049207;28;20201;-87
2020/12/16 12:52:11;;;;;;;25.67;13.43;;;10.50;91.00;;;;;;5038670;28;20029;-89
2020/12/16 12:54:37;;;;;;;25.90;13.82;;;10.60;90.90;;;;;;5034021;28;20029;-90